Inspiration — C6FM5 — position and weather

sailwx.info

Track history (hours):
 
Tides and Currents Weather Stations Pressure Air Temp Water Temp Dewpoint Dewpoint Depression Visibility Wind Speed Wind Dir Waves Ship Positions

Inspiration

Operator: Carnival Cruise Lines

Last reported at 2018-Sep-24 21:29 UTC. Time now 2018-Sep-24 21:59 UTC.
Position N 33°45' W 118°11'.

Type: Ship. MMSI: 309484000.

Date/timePositionNaut miles runAvg speedWind from/ knotsBaromVisibWave heightAir tempDewpointWater temp
2018-Sep-24 21:29N 33°45' W 118°11'0 0.0
2018-Sep-24 21:02N 33°45' W 118°11'0 0.0
2018-Sep-24 20:59N 33°45' W 118°11'0 0.0
2018-Sep-24 20:29N 33°45' W 118°11'0 0.0
2018-Sep-24 20:02N 33°45' W 118°11'0 0.0
2018-Sep-24 19:59N 33°45' W 118°11'0 0.0
2018-Sep-24 19:28N 33°45' W 118°11'0 0.0
2018-Sep-24 19:01N 33°45' W 118°11'0 0.0
2018-Sep-24 18:58N 33°45' W 118°11'0 0.0
2018-Sep-24 18:28N 33°45' W 118°11'0 0.0
2018-Sep-24 18:01N 33°45' W 118°11'0 0.0
2018-Sep-24 17:55N 33°45' W 118°11'0 0.0
2018-Sep-24 17:28N 33°45' W 118°11'0 0.0
2018-Sep-24 17:03N 33°45' W 118°11'0 0.0
2018-Sep-24 17:00N 33°45' W 118°11'0 0.0
2018-Sep-24 16:30N 33°45' W 118°11'0 0.0
2018-Sep-24 16:03N 33°45' W 118°11'0 0.0
2018-Sep-24 16:00N 33°45' W 118°11'0 0.0
2018-Sep-24 15:30N 33°45' W 118°11'0 0.0
2018-Sep-24 15:03N 33°45' W 118°11'0 0.0
2018-Sep-24 15:00N 33°45' W 118°11'0 0.0
2018-Sep-24 14:02N 33°45' W 118°11'0 0.0
2018-Sep-24 13:59N 33°45' W 118°11'0 0.0
2018-Sep-24 13:29N 33°45' W 118°11'0 0.0
2018-Sep-24 13:02N 33°45' W 118°11'0 0.0
2018-Sep-24 12:59N 33°45' W 118°11'0 0.7
2018-Sep-24 12:30N 33°45' W 118°11'1 1.5
2018-Sep-24 12:03N 33°44' W 118°11'0 6.5
2018-Sep-24 12:00N 33°44' W 118°11'4 8.9
2018-Sep-24 11:30N 33°39' W 118°10'3 7.7
2018-Sep-24 11:03N 33°36' W 118°10'111.8
2018-Sep-24 11:00N 33°35' W 118°10'611.8
2018-Sep-24 10:31N 33°30' W 118°07'716.0
2018-Sep-24 10:04N 33°23' W 118°04'116.0
2018-Sep-24 10:01N 33°22' W 118°04'816.1
2018-Sep-24 09:30N 33°15' W 118°01'715.8
2018-Sep-24 09:03N 33°08' W 117°58'116.0
2018-Sep-24 09:00N 33°07' W 117°57'815.9
2018-Sep-24 08:30N 32°60' W 117°54'716.0
2018-Sep-24 08:03N 32°53' W 117°51'116.4
2018-Sep-24 08:00N 32°52' W 117°51'815.9
2018-Sep-24 07:30N 32°45' W 117°48'715.6
2018-Sep-24 07:03N 32°38' W 117°45'115.8
2018-Sep-24 07:00N 32°38' W 117°44'815.1
2018-Sep-24 06:30N 32°31' W 117°41'715.2
2018-Sep-24 06:03N 32°25' W 117°37'114.7
2018-Sep-24 06:00N 32°24' W 117°37'714.8
2018-Sep-24 05:30N 32°17' W 117°33'714.9
2018-Sep-24 05:03N 32°12' W 117°28'115.0
2018-Sep-24 05:01N 32°12' W 117°27'714.8
2018-Sep-24 04:30N 32°07' W 117°20'714.5
2018-Sep-24 04:03N 32°04' W 117°14'114.7
2018-Sep-24 04:00N 32°03' W 117°13'714.7
2018-Sep-24 03:30N 31°59' W 117°06'714.9
2018-Sep-24 03:03N 31°57' W 116°58'114.6
2018-Sep-24 03:00N 31°57' W 116°57'17 1.3
2018-Sep-23 13:53N 31°50' W 116°39'3 8.3
2018-Sep-23 13:30N 31°50' W 116°43'4 8.9
2018-Sep-23 13:02N 31°50' W 116°48'0 9.1
2018-Sep-23 13:01N 31°50' W 116°48'4 7.2
2018-Sep-23 12:30N 31°51' W 116°52'3 7.7
2018-Sep-23 12:03N 31°50' W 116°56'0 8.2
2018-Sep-23 12:01N 31°50' W 116°57'4 7.8
2018-Sep-23 11:30N 31°48' W 117°01'3 7.8
2018-Sep-23 11:03N 31°47' W 117°05'0 7.5
2018-Sep-23 11:00N 31°47' W 117°05'4 7.8
2018-Sep-23 10:30N 31°47' W 117°10'4 7.8
2018-Sep-23 10:03N 31°47' W 117°14'0 9.2
2018-Sep-23 10:01N 31°47' W 117°14'4 7.9
2018-Sep-23 09:30N 31°47' W 117°19'4 7.9
2018-Sep-23 09:04N 31°47' W 117°23'0 8.3
2018-Sep-23 09:00N 31°47' W 117°24'4 9.0
2018-Sep-23 08:31N 31°47' W 117°29'4 8.8
2018-Sep-23 08:03N 31°47' W 117°34'0 7.6
2018-Sep-23 08:00N 31°47' W 117°34'3 7.0
2018-Sep-23 07:31N 31°47' W 117°38'3 7.0
2018-Sep-23 07:03N 31°47' W 117°42'0 7.6
2018-Sep-23 07:01N 31°47' W 117°42'4 7.6
2018-Sep-23 06:30N 31°47' W 117°47'3 7.7
2018-Sep-23 06:03N 31°47' W 117°51'0 7.4
2018-Sep-23 06:00N 31°47' W 117°51'4 7.8
2018-Sep-23 05:31N 31°46' W 117°56'4 8.0
2018-Sep-23 05:04N 31°42' W 117°57'0 8.0
2018-Sep-23 05:01N 31°42' W 117°57'4 8.0
2018-Sep-23 04:31N 31°38' W 117°57'4 7.8
2018-Sep-23 04:04N 31°34' W 117°57'0 7.6
2018-Sep-23 04:01N 31°34' W 117°57'3 6.9
2018-Sep-23 03:31N 31°31' W 117°55'3 7.2
2018-Sep-23 03:03N 31°31' W 117°51'0 8.6
2018-Sep-23 03:01N 31°31' W 117°51'4 8.5
2018-Sep-23 02:30N 31°34' W 117°46'4 8.3
2018-Sep-23 02:04N 31°36' W 117°43'0 7.8
2018-Sep-23 02:00N 31°36' W 117°42'4 8.0
2018-Sep-23 01:31N 31°38' W 117°39'3 7.7
2018-Sep-23 01:04N 31°42' W 117°38'0 8.0
2018-Sep-23 01:01N 31°42' W 117°38'4 7.7
2018-Sep-23 00:30N 31°46' W 117°39'3 7.4
2018-Sep-23 00:03N 31°47' W 117°43'0 6.8
2018-Sep-23 00:00N 31°47' W 117°43'5 9.6
2018-Sep-22 23:31N 31°47' W 117°49'613.1
2018-Sep-22 23:03N 31°46' W 117°56'113.6
2018-Sep-22 23:01N 31°45' W 117°56'713.2
2018-Sep-22 22:31N 31°39' W 117°57'613.1
2018-Sep-22 22:04N 31°33' W 117°57'113.2
2018-Sep-22 22:01N 31°32' W 117°57'612.9
2018-Sep-22 21:30N 31°26' W 117°57'612.9
2018-Sep-22 21:04N 31°20' W 117°57'113.0
2018-Sep-22 21:01N 31°19' W 117°57'611.9
2018-Sep-22 20:30N 31°14' W 117°59'614.2
2018-Sep-22 20:03N 31°14' W 118°07'114.4
2018-Sep-22 20:00N 31°14' W 118°08'714.4
2018-Sep-22 19:30N 31°14' W 118°16'614.1
2018-Sep-22 19:03N 31°14' W 118°23'114.6
2018-Sep-22 19:00N 31°15' W 118°24'713.8
2018-Sep-22 18:30N 31°21' W 118°23'714.8
2018-Sep-22 18:03N 31°27' W 118°20'115.0
2018-Sep-22 18:00N 31°28' W 118°20'715.0
2018-Sep-22 17:30N 31°35' W 118°16'714.9
2018-Sep-22 17:03N 31°41' W 118°13'114.5
2018-Sep-22 17:00N 31°42' W 118°13'714.9
2018-Sep-22 16:31N 31°49' W 118°09'613.5
2018-Sep-22 16:03N 31°54' W 118°07'0 8.9
2018-Sep-22 16:01N 31°55' W 118°07'4 7.6
2018-Sep-22 15:29N 31°59' W 118°05'3 7.5
2018-Sep-22 15:03N 32°02' W 118°03'0 7.1
2018-Sep-22 15:00N 32°02' W 118°03'4 7.3
2018-Sep-22 14:31N 32°05' W 118°02'4 7.5
2018-Sep-22 14:00N 32°09' W 118°00'4 7.3
2018-Sep-22 13:31N 32°12' W 117°59'3 7.3
2018-Sep-22 13:03N 32°15' W 117°57'0 7.3
2018-Sep-22 13:01N 32°16' W 117°57'4 7.3
2018-Sep-22 12:30N 32°19' W 117°55'3 7.3
2018-Sep-22 12:03N 32°22' W 117°54'0 7.4
2018-Sep-22 12:01N 32°22' W 117°54'4 7.3
2018-Sep-22 11:30N 32°26' W 117°52'3 7.2
2018-Sep-22 11:03N 32°29' W 117°51'0 7.0
2018-Sep-22 11:01N 32°29' W 117°51'4 7.4
2018-Sep-22 10:31N 32°33' W 117°49'3 7.4
2018-Sep-22 10:04N 32°36' W 117°48'0 7.1
2018-Sep-22 10:00N 32°36' W 117°48'4 7.1
2018-Sep-22 09:31N 32°40' W 117°48'3 7.3
2018-Sep-22 09:03N 32°43' W 117°49'0 7.6
2018-Sep-22 09:01N 32°43' W 117°49'5 9.5
2018-Sep-22 08:31N 32°47' W 117°52'3 7.7
2018-Sep-22 08:04N 32°51' W 117°53'0 7.7
2018-Sep-22 08:00N 32°51' W 117°53'4 7.7
2018-Sep-22 07:31N 32°55' W 117°55'3 7.6
2018-Sep-22 07:04N 32°58' W 117°56'0 7.1
2018-Sep-22 07:00N 32°58' W 117°56'4 7.4
2018-Sep-22 06:31N 33°02' W 117°58'3 7.4
2018-Sep-22 06:03N 33°05' W 117°59'0 7.3
2018-Sep-22 06:01N 33°05' W 117°60'4 7.5
2018-Sep-22 05:30N 33°09' W 118°01'4 8.6
2018-Sep-22 05:04N 33°12' W 118°03'0 9.9
2018-Sep-22 05:00N 33°13' W 118°03'510.0
2018-Sep-22 04:30N 33°17' W 118°05'510.2
2018-Sep-22 04:03N 33°22' W 118°07'010.3
2018-Sep-22 04:00N 33°22' W 118°07'510.2
2018-Sep-22 03:30N 33°27' W 118°09'510.0
2018-Sep-22 03:03N 33°31' W 118°11'0 9.6
2018-Sep-22 03:00N 33°32' W 118°12'4 9.0
2018-Sep-22 02:31N 33°36' W 118°13'4 9.2
2018-Sep-22 02:03N 33°40' W 118°12'0 9.0
2018-Sep-22 02:00N 33°41' W 118°12'4 8.1
2018-Sep-22 01:30N 33°44' W 118°11'1 1.6
2018-Sep-22 01:03N 33°45' W 118°11'0 0.0
2018-Sep-22 01:00N 33°45' W 118°11'0 0.0
2018-Sep-22 00:30N 33°45' W 118°11'0 0.0
2018-Sep-22 00:03N 33°45' W 118°11'0 0.0
2018-Sep-22 00:00N 33°45' W 118°11'0 0.0
2018-Sep-21 23:30N 33°45' W 118°11'0 0.0
2018-Sep-21 23:02N 33°45' W 118°11'0 0.0
2018-Sep-21 22:59N 33°45' W 118°11'0 0.0
2018-Sep-21 22:29N 33°45' W 118°11'0 0.0
2018-Sep-21 22:02N 33°45' W 118°11'0 0.0
2018-Sep-21 21:59N 33°45' W 118°11'0 0.0
2018-Sep-21 21:29N 33°45' W 118°11'0 0.0
2018-Sep-21 21:02N 33°45' W 118°11'0 0.0
2018-Sep-21 20:59N 33°45' W 118°11'0 0.0
2018-Sep-21 20:28N 33°45' W 118°11'0 0.0
2018-Sep-21 20:01N 33°45' W 118°11'0 0.0
2018-Sep-21 19:58N 33°45' W 118°11'0 0.0
2018-Sep-21 19:28N 33°45' W 118°11'0 0.0
2018-Sep-21 19:01N 33°45' W 118°11'0 0.0
2018-Sep-21 18:58N 33°45' W 118°11'0 0.0
2018-Sep-21 18:30N 33°45' W 118°11'0 0.0
2018-Sep-21 18:03N 33°45' W 118°11'0 0.0
2018-Sep-21 17:56N 33°45' W 118°11'0 0.0
2018-Sep-21 17:30N 33°45' W 118°11'0 0.0
2018-Sep-21 17:03N 33°45' W 118°11'0 0.0
2018-Sep-21 17:00N 33°45' W 118°11'0 0.0
2018-Sep-21 16:30N 33°45' W 118°11'0 0.0
2018-Sep-21 15:59N 33°45' W 118°11'0 0.0
2018-Sep-21 15:29N 33°45' W 118°11'0 0.0
2018-Sep-21 15:02N 33°45' W 118°11'0 0.0
2018-Sep-21 14:59N 33°45' W 118°11'0 0.0
2018-Sep-21 14:29N 33°45' W 118°11'0 0.0
2018-Sep-21 13:28N 33°45' W 118°11'0 0.0
2018-Sep-21 12:58N 33°45' W 118°11'0 0.1
2018-Sep-21 12:30N 33°45' W 118°11'1 1.7
2018-Sep-21 12:03N 33°44' W 118°11'0 5.8
2018-Sep-21 12:00N 33°44' W 118°11'5 9.1
2018-Sep-21 11:30N 33°39' W 118°10'3 7.4
2018-Sep-21 11:03N 33°36' W 118°10'0 7.5
2018-Sep-21 11:00N 33°36' W 118°10'4 7.5
2018-Sep-21 10:30N 33°32' W 118°08'4 7.8
2018-Sep-21 10:03N 33°29' W 118°07'0 8.0
2018-Sep-21 10:00N 33°29' W 118°07'4 7.9
2018-Sep-21 09:30N 33°25' W 118°05'4 8.0
2018-Sep-21 09:03N 33°22' W 118°03'0 7.9
2018-Sep-21 09:00N 33°21' W 118°03'4 8.0
2018-Sep-21 08:30N 33°18' W 118°01'4 8.2
2018-Sep-21 08:03N 33°14' W 117°60'0 8.4
2018-Sep-21 08:00N 33°14' W 117°60'4 7.5
2018-Sep-21 07:30N 33°10' W 117°58'3 7.7
2018-Sep-21 07:03N 33°07' W 117°57'0 8.1
2018-Sep-21 07:00N 33°07' W 117°57'4 7.9
2018-Sep-21 06:30N 33°03' W 117°55'4 8.0
2018-Sep-21 06:03N 32°59' W 117°54'0 7.6
2018-Sep-21 06:00N 32°59' W 117°54'4 7.9
2018-Sep-21 05:30N 32°55' W 117°52'3 7.8
2018-Sep-21 05:03N 32°52' W 117°51'0 7.7
2018-Sep-21 05:00N 32°52' W 117°51'4 7.8
2018-Sep-21 04:30N 32°48' W 117°49'4 8.3
2018-Sep-21 04:03N 32°45' W 117°47'0 7.9
2018-Sep-21 04:00N 32°44' W 117°47'4 8.1
2018-Sep-21 03:30N 32°40' W 117°46'4 8.2
2018-Sep-21 03:03N 32°37' W 117°44'0 8.4
2018-Sep-21 03:00N 32°36' W 117°44'4 8.0
2018-Sep-21 02:30N 32°33' W 117°43'4 8.0
2018-Sep-21 02:03N 32°29' W 117°41'0 8.2
2018-Sep-21 02:00N 32°29' W 117°41'4 8.1
2018-Sep-21 01:30N 32°25' W 117°40'4 8.2
2018-Sep-21 01:03N 32°21' W 117°39'0 8.2
2018-Sep-21 01:00N 32°21' W 117°38'4 8.3
2018-Sep-21 00:30N 32°17' W 117°36'4 8.4
2018-Sep-21 00:03N 32°15' W 117°33'0 8.7
2018-Sep-21 00:00N 32°14' W 117°33'4 8.4
2018-Sep-20 23:30N 32°11' W 117°29'4 8.3
2018-Sep-20 23:02N 32°08' W 117°26'0 7.7
2018-Sep-20 23:00N 32°08' W 117°26'4 8.4
2018-Sep-20 22:30N 32°05' W 117°23'4 8.3
2018-Sep-20 22:03N 32°02' W 117°20'0 8.7
2018-Sep-20 22:00N 32°02' W 117°19'4 8.2
2018-Sep-20 21:29N 31°59' W 117°16'3 7.6
2018-Sep-20 21:03N 31°56' W 117°13'0 7.0
2018-Sep-20 21:00N 31°56' W 117°13'3 6.4
2018-Sep-20 20:30N 31°53' W 117°13'3 7.0
2018-Sep-20 20:03N 31°51' W 117°16'0 7.7
2018-Sep-20 20:00N 31°51' W 117°17'4 7.6
2018-Sep-20 19:30N 31°51' W 117°21'3 7.8
2018-Sep-20 19:03N 31°50' W 117°25'0 8.2
2018-Sep-20 19:00N 31°50' W 117°25'4 8.1
2018-Sep-20 18:30N 31°50' W 117°30'4 8.5
2018-Sep-20 18:03N 31°49' W 117°35'0 8.8
2018-Sep-20 18:00N 31°49' W 117°35'4 8.4
2018-Sep-20 17:30N 31°49' W 117°40'4 8.1
2018-Sep-20 17:03N 31°48' W 117°44'0 7.8
2018-Sep-20 17:00N 31°48' W 117°45'4 8.1
2018-Sep-20 16:30N 31°48' W 117°50'4 8.0
2018-Sep-20 16:03N 31°48' W 117°54'0 7.2
2018-Sep-20 16:00N 31°47' W 117°54'4 8.1
2018-Sep-20 15:30N 31°47' W 117°59'4 8.0
2018-Sep-20 15:03N 31°47' W 118°03'0 8.8
2018-Sep-20 15:00N 31°47' W 118°04'6 6.5
2018-Sep-20 14:03N 31°40' W 118°05'0 7.9
2018-Sep-20 14:00N 31°40' W 118°05'4 7.9
2018-Sep-20 13:30N 31°37' W 118°02'3 7.6
2018-Sep-20 13:03N 31°34' W 117°60'0 7.6
2018-Sep-20 13:00N 31°34' W 117°59'4 7.6
2018-Sep-20 12:30N 31°31' W 117°57'3 7.4
2018-Sep-20 12:03N 31°28' W 117°55'0 7.7
2018-Sep-20 12:00N 31°27' W 117°55'4 7.4
2018-Sep-20 11:30N 31°24' W 117°52'3 7.1
2018-Sep-20 11:03N 31°23' W 117°49'1 7.7
2018-Sep-20 10:59N 31°23' W 117°48'3 6.4
2018-Sep-20 10:30N 31°24' W 117°45'3 7.0
2018-Sep-20 10:03N 31°27' W 117°45'0 7.5
2018-Sep-20 10:00N 31°28' W 117°45'4 7.7
2018-Sep-20 09:30N 31°31' W 117°48'3 7.6
2018-Sep-20 09:03N 31°34' W 117°50'0 7.5
2018-Sep-20 09:00N 31°34' W 117°50'4 7.4
2018-Sep-20 08:30N 31°37' W 117°53'3 7.2
2018-Sep-20 08:03N 31°40' W 117°55'0 7.2
2018-Sep-20 08:00N 31°40' W 117°55'3 7.0
2018-Sep-20 07:30N 31°44' W 117°55'3 7.4
2018-Sep-20 07:03N 31°45' W 117°52'0 7.6
2018-Sep-20 07:00N 31°45' W 117°51'4 7.8
2018-Sep-20 06:30N 31°45' W 117°47'4 8.0
2018-Sep-20 06:03N 31°46' W 117°43'0 8.1
2018-Sep-20 06:00N 31°46' W 117°42'4 7.8
2018-Sep-20 05:30N 31°46' W 117°38'4 8.8
2018-Sep-20 05:03N 31°46' W 117°33'110.3
2018-Sep-20 05:00N 31°47' W 117°32'713.6
2018-Sep-20 04:30N 31°47' W 117°24'714.6
2018-Sep-20 04:03N 31°48' W 117°17'114.4
2018-Sep-20 04:00N 31°48' W 117°16'714.6
2018-Sep-20 03:31N 31°49' W 117°07'714.8
2018-Sep-20 03:03N 31°49' W 116°59'114.9
2018-Sep-20 03:00N 31°49' W 116°59'714.5
2018-Sep-20 02:31N 31°50' W 116°50'813.6
2018-Sep-20 01:56N 31°49' W 116°41'2 0.2
2018-Sep-19 13:55N 31°50' W 116°39'8 7.6
2018-Sep-19 12:51N 31°53' W 116°48'3 8.0
2018-Sep-19 12:30N 31°54' W 116°50'4 8.8
2018-Sep-19 12:03N 31°55' W 116°55'0 9.6
2018-Sep-19 12:00N 31°55' W 116°55'5 9.2
2018-Sep-19 11:30N 31°57' W 117°00'4 9.4
2018-Sep-19 11:03N 31°58' W 117°05'0 9.6
2018-Sep-19 11:00N 31°58' W 117°06'510.0
2018-Sep-19 10:29N 31°60' W 117°12'410.1
2018-Sep-19 10:03N 32°01' W 117°16'0 9.6
2018-Sep-19 10:00N 32°01' W 117°17'5 9.6
2018-Sep-19 09:30N 32°03' W 117°22'4 9.1
2018-Sep-19 09:03N 32°05' W 117°26'0 9.5
2018-Sep-19 09:00N 32°05' W 117°27'5 9.1
2018-Sep-19 08:30N 32°08' W 117°31'4 9.9
2018-Sep-19 08:03N 32°11' W 117°34'111.0
2018-Sep-19 08:00N 32°12' W 117°35'5 9.9
2018-Sep-19 07:30N 32°16' W 117°37'510.2
2018-Sep-19 07:03N 32°20' W 117°40'110.4
2018-Sep-19 07:00N 32°21' W 117°40'510.8
2018-Sep-19 06:30N 32°26' W 117°43'510.9
2018-Sep-19 06:03N 32°30' W 117°46'111.1
2018-Sep-19 06:00N 32°31' W 117°46'611.0
2018-Sep-19 05:30N 32°35' W 117°49'511.0
2018-Sep-19 05:03N 32°39' W 117°53'110.9
2018-Sep-19 05:00N 32°40' W 117°53'510.7
2018-Sep-19 04:30N 32°45' W 117°55'510.8
2018-Sep-19 04:03N 32°49' W 117°57'110.4
2018-Sep-19 04:00N 32°50' W 117°57'510.5
2018-Sep-19 03:30N 32°55' W 118°00'510.6
2018-Sep-19 03:03N 32°59' W 118°03'111.0
2018-Sep-19 03:00N 32°59' W 118°03'611.1
2018-Sep-19 02:30N 33°04' W 118°06'510.9
2018-Sep-19 02:03N 33°09' W 118°09'111.2
2018-Sep-19 02:00N 33°09' W 118°09'511.0
2018-Sep-19 01:30N 33°14' W 118°11'510.5
2018-Sep-19 01:03N 33°19' W 118°11'110.2
2018-Sep-19 01:00N 33°20' W 118°11'4 8.4
2018-Sep-19 00:30N 33°20' W 118°16'2 5.2
2018-Sep-19 00:04N 33°21' W 118°19'0 1.4
2018-Sep-19 00:01N 33°21' W 118°19'0 0.1
2018-Sep-18 23:29N 33°21' W 118°19'0 0.0
2018-Sep-18 23:02N 33°21' W 118°19'0 0.0
2018-Sep-18 22:59N 33°21' W 118°19'0 0.0
2018-Sep-18 22:29N 33°21' W 118°19'0 0.1
2018-Sep-18 22:01N 33°21' W 118°19'0 1.0
2018-Sep-18 21:58N 33°21' W 118°19'0 0.0
2018-Sep-18 21:25N 33°21' W 118°19'0 0.0
2018-Sep-18 20:58N 33°21' W 118°19'0 0.1
2018-Sep-18 20:25N 33°21' W 118°19'0 0.0
2018-Sep-18 20:01N 33°21' W 118°19'0 0.1
2018-Sep-18 19:58N 33°21' W 118°19'0 0.0
2018-Sep-18 19:30N 33°21' W 118°19'0 0.0
2018-Sep-18 19:03N 33°21' W 118°19'0 1.0
2018-Sep-18 19:00N 33°21' W 118°19'0 0.0
2018-Sep-18 18:30N 33°21' W 118°19'0 0.1
2018-Sep-18 18:03N 33°21' W 118°19'0 0.0
2018-Sep-18 18:00N 33°21' W 118°19'0 0.0
2018-Sep-18 17:29N 33°21' W 118°19'0 0.1
2018-Sep-18 17:02N 33°21' W 118°19'0 0.1
2018-Sep-18 16:59N 33°21' W 118°19'0 0.1
2018-Sep-18 16:29N 33°21' W 118°19'0 0.0
2018-Sep-18 16:02N 33°21' W 118°19'0 0.0
2018-Sep-18 15:56N 33°21' W 118°19'0 0.1
2018-Sep-18 15:23N 33°21' W 118°19'0 0.0
2018-Sep-18 15:01N 33°21' W 118°19'0 0.1
2018-Sep-18 14:58N 33°21' W 118°19'0 0.0
2018-Sep-18 14:25N 33°21' W 118°19'0 0.1
2018-Sep-18 14:00N 33°21' W 118°19'3 5.5
2018-Sep-18 13:30N 33°19' W 118°17'3 7.6
2018-Sep-18 13:03N 33°16' W 118°16'0 7.6
2018-Sep-18 13:00N 33°15' W 118°16'3 6.6
2018-Sep-18 12:30N 33°12' W 118°15'3 7.2
2018-Sep-18 12:02N 33°09' W 118°14'0 7.1
2018-Sep-18 12:00N 33°09' W 118°14'4 7.2
2018-Sep-18 11:30N 33°05' W 118°13'3 7.0
2018-Sep-18 11:03N 33°03' W 118°10'0 7.7
2018-Sep-18 11:00N 33°02' W 118°10'4 7.3
2018-Sep-18 10:30N 33°00' W 118°07'3 7.2
2018-Sep-18 10:03N 32°57' W 118°04'0 7.5
2018-Sep-18 10:00N 32°57' W 118°04'4 7.2
2018-Sep-18 09:30N 32°54' W 118°03'3 7.2
2018-Sep-18 09:03N 32°51' W 118°01'0 7.0
2018-Sep-18 09:00N 32°50' W 118°01'4 6.7
2018-Sep-18 08:29N 32°49' W 117°57'3 6.8
2018-Sep-18 08:03N 32°50' W 117°54'0 7.4
2018-Sep-18 08:00N 32°51' W 117°54'3 6.9
2018-Sep-18 07:30N 32°54' W 117°54'3 7.1
2018-Sep-18 07:03N 32°57' W 117°56'0 7.5
2018-Sep-18 07:00N 32°57' W 117°56'4 7.3
2018-Sep-18 06:30N 33°01' W 117°58'3 7.2
2018-Sep-18 06:03N 33°04' W 117°59'0 7.6
2018-Sep-18 06:00N 33°04' W 117°59'4 7.3
2018-Sep-18 05:30N 33°07' W 118°01'4 8.2
2018-Sep-18 05:03N 33°11' W 118°02'110.1
2018-Sep-18 05:00N 33°11' W 118°03'510.2
2018-Sep-18 04:30N 33°16' W 118°05'510.3
2018-Sep-18 04:03N 33°20' W 118°07'110.4
2018-Sep-18 04:00N 33°21' W 118°07'5 9.7
2018-Sep-18 03:30N 33°26' W 118°09'510.4
2018-Sep-18 03:03N 33°30' W 118°11'010.3
2018-Sep-18 03:00N 33°30' W 118°11'510.7
2018-Sep-18 02:30N 33°35' W 118°13'4 9.6
2018-Sep-18 02:03N 33°40' W 118°12'0 9.2
2018-Sep-18 02:00N 33°40' W 118°12'4 8.9
2018-Sep-18 01:30N 33°44' W 118°11'1 1.4
2018-Sep-18 01:02N 33°45' W 118°11'0 0.0
2018-Sep-18 00:59N 33°45' W 118°11'0 0.0
2018-Sep-18 00:28N 33°45' W 118°11'0 0.0
2018-Sep-18 00:01N 33°45' W 118°11'0 0.0
2018-Sep-17 23:58N 33°45' W 118°11'0 0.0
2018-Sep-17 23:29N 33°45' W 118°11'0 0.0
2018-Sep-17 23:01N 33°45' W 118°11'0 0.0
2018-Sep-17 22:58N 33°45' W 118°11'0 0.0
2018-Sep-17 22:28N 33°45' W 118°11'0 0.0
2018-Sep-17 22:03N 33°45' W 118°11'0 0.0
2018-Sep-17 22:00N 33°45' W 118°11'0 0.0
2018-Sep-17 21:30N 33°45' W 118°11'0 0.0
2018-Sep-17 21:03N 33°45' W 118°11'0 0.0
2018-Sep-17 21:00N 33°45' W 118°11'0 0.0
2018-Sep-17 20:30N 33°45' W 118°11'0 0.0
2018-Sep-17 20:02N 33°45' W 118°11'0 0.0
2018-Sep-17 19:59N 33°45' W 118°11'0 0.0
2018-Sep-17 19:29N 33°45' W 118°11'0 0.0
2018-Sep-17 19:02N 33°45' W 118°11'0 0.0
2018-Sep-17 18:59N 33°45' W 118°11'0 0.0
2018-Sep-17 18:29N 33°45' W 118°11'0 0.0
2018-Sep-17 17:59N 33°45' W 118°11'0 0.0
2018-Sep-17 17:28N 33°45' W 118°11'0 0.0
2018-Sep-17 17:01N 33°45' W 118°11'0 0.0
2018-Sep-17 16:58N 33°45' W 118°11'0 0.0
2018-Sep-17 16:28N 33°45' W 118°11'0 0.0
2018-Sep-17 16:01N 33°45' W 118°11'0 0.0
2018-Sep-17 15:58N 33°45' W 118°11'0 0.0
2018-Sep-17 15:28N 33°45' W 118°11'0 0.0
2018-Sep-17 15:03N 33°45' W 118°11'0 0.0
2018-Sep-17 15:00N 33°45' W 118°11'0 0.0
2018-Sep-17 14:30N 33°45' W 118°11'0 0.0
2018-Sep-17 13:57N 33°45' W 118°11'0 0.0
2018-Sep-17 13:30N 33°45' W 118°11'0 0.0
2018-Sep-17 13:02N 33°45' W 118°11'0 0.0
2018-Sep-17 12:59N 33°45' W 118°11'0 0.6
2018-Sep-17 12:31N 33°45' W 118°11'1 3.0
2018-Sep-17 12:03N 33°44' W 118°11'0 9.8
2018-Sep-17 12:00N 33°43' W 118°11'510.5
2018-Sep-17 11:30N 33°38' W 118°10'511.3
2018-Sep-17 11:03N 33°33' W 118°09'115.4
2018-Sep-17 11:00N 33°32' W 118°08'815.6
2018-Sep-17 10:30N 33°25' W 118°05'715.8
2018-Sep-17 10:04N 33°18' W 118°02'116.1
2018-Sep-17 10:00N 33°18' W 118°01'815.5
2018-Sep-17 09:30N 33°10' W 117°58'715.7
2018-Sep-17 09:03N 33°04' W 117°56'115.9
2018-Sep-17 09:00N 33°03' W 117°55'815.7
2018-Sep-17 08:31N 32°55' W 117°52'715.9
2018-Sep-17 08:03N 32°49' W 117°49'115.6
2018-Sep-17 08:01N 32°48' W 117°49'815.6
2018-Sep-17 07:30N 32°41' W 117°46'715.3
2018-Sep-17 07:03N 32°34' W 117°43'115.6
2018-Sep-17 07:01N 32°34' W 117°42'814.9
2018-Sep-17 06:30N 32°27' W 117°38'614.4
2018-Sep-17 06:03N 32°21' W 117°35'114.6
2018-Sep-17 06:00N 32°20' W 117°35'714.1
2018-Sep-17 05:30N 32°14' W 117°30'614.4
2018-Sep-17 05:04N 32°10' W 117°25'115.1
2018-Sep-17 05:00N 32°09' W 117°24'714.5
2018-Sep-17 04:30N 32°05' W 117°18'614.2
2018-Sep-17 04:03N 32°02' W 117°11'113.9
2018-Sep-17 04:00N 32°01' W 117°10'714.0
2018-Sep-17 03:30N 31°58' W 117°03'614.0
2018-Sep-17 03:04N 31°56' W 116°56'113.6
2018-Sep-17 03:01N 31°55' W 116°56'714.1
2018-Sep-17 02:30N 31°53' W 116°48'613.1
2018-Sep-17 02:03N 31°50' W 116°42'112.7
2018-Sep-17 01:59N 31°50' W 116°41'2 0.2
2018-Sep-16 14:00N 31°50' W 116°39'3 6.8
2018-Sep-16 13:30N 31°50' W 116°43'4 8.5
2018-Sep-16 13:02N 31°50' W 116°47'0 8.6
2018-Sep-16 13:00N 31°50' W 116°48'4 8.2
2018-Sep-16 12:30N 31°50' W 116°52'510.5
2018-Sep-16 12:03N 31°50' W 116°58'110.8
2018-Sep-16 12:00N 31°49' W 116°59'510.4
2018-Sep-16 11:30N 31°48' W 117°04'510.1
2018-Sep-16 11:03N 31°47' W 117°10'110.6
2018-Sep-16 11:00N 31°47' W 117°10'510.3
2018-Sep-16 10:30N 31°48' W 117°16'510.3
2018-Sep-16 10:03N 31°49' W 117°22'0 9.7
2018-Sep-16 10:00N 31°49' W 117°22'510.1
2018-Sep-16 09:30N 31°49' W 117°28'510.0
2018-Sep-16 09:03N 31°50' W 117°33'1 9.8
2018-Sep-16 09:00N 31°50' W 117°34'510.0
2018-Sep-16 08:30N 31°51' W 117°40'4 9.9
2018-Sep-16 08:03N 31°51' W 117°45'110.4
2018-Sep-16 08:00N 31°51' W 117°46'510.1
2018-Sep-16 07:30N 31°52' W 117°52'4 9.9
2018-Sep-16 07:03N 31°53' W 117°57'0 8.8
2018-Sep-16 07:00N 31°53' W 117°57'5 9.3
2018-Sep-16 06:30N 31°53' W 118°03'4 8.7
2018-Sep-16 06:03N 31°53' W 118°07'0 8.3
2018-Sep-16 06:00N 31°53' W 118°08'4 7.7
2018-Sep-16 05:30N 31°49' W 118°06'4 8.1
2018-Sep-16 05:03N 31°46' W 118°04'0 8.1
2018-Sep-16 05:00N 31°45' W 118°04'4 8.0
2018-Sep-16 04:30N 31°42' W 118°02'4 7.9
2018-Sep-16 04:03N 31°39' W 117°60'0 8.0
2018-Sep-16 04:00N 31°38' W 117°59'4 7.7
2018-Sep-16 03:30N 31°35' W 117°57'3 7.3
2018-Sep-16 03:03N 31°32' W 117°56'0 7.4
2018-Sep-16 03:00N 31°32' W 117°56'4 7.5
2018-Sep-16 02:30N 31°28' W 117°55'3 7.3
2018-Sep-16 02:03N 31°25' W 117°55'0 7.6
2018-Sep-16 02:00N 31°24' W 117°55'4 7.7
2018-Sep-16 01:30N 31°20' W 117°55'3 7.5
2018-Sep-16 01:03N 31°17' W 117°55'0 7.4
2018-Sep-16 01:00N 31°17' W 117°55'4 7.9
2018-Sep-16 00:30N 31°13' W 117°57'3 8.0
2018-Sep-16 00:03N 31°11' W 117°60'0 8.0
2018-Sep-16 00:00N 31°10' W 118°00'4 7.8
2018-Sep-15 23:30N 31°07' W 118°03'3 6.8
2018-Sep-15 23:03N 31°07' W 118°07'0 7.2
2018-Sep-15 23:00N 31°07' W 118°07'4 7.6
2018-Sep-15 22:30N 31°09' W 118°10'3 7.7
2018-Sep-15 22:03N 31°12' W 118°13'0 7.9
2018-Sep-15 22:00N 31°12' W 118°13'4 7.6
2018-Sep-15 21:30N 31°15' W 118°16'3 7.5
2018-Sep-15 21:03N 31°18' W 118°19'0 7.0
2018-Sep-15 21:00N 31°18' W 118°19'4 7.5
2018-Sep-15 20:30N 31°21' W 118°22'3 6.7
2018-Sep-15 20:03N 31°24' W 118°21'0 6.5
2018-Sep-15 20:00N 31°24' W 118°21'4 7.2
2018-Sep-15 19:30N 31°28' W 118°20'3 7.7
2018-Sep-15 19:03N 31°31' W 118°18'0 7.9
2018-Sep-15 19:00N 31°31' W 118°18'4 7.9
2018-Sep-15 18:30N 31°35' W 118°16'4 7.8
2018-Sep-15 18:03N 31°38' W 118°15'0 7.7
2018-Sep-15 18:00N 31°38' W 118°14'4 7.8
2018-Sep-15 17:30N 31°42' W 118°13'3 7.4
2018-Sep-15 17:03N 31°45' W 118°11'0 7.3
2018-Sep-15 17:00N 31°45' W 118°11'4 7.3
2018-Sep-15 16:30N 31°49' W 118°09'3 7.4
2018-Sep-15 16:03N 31°52' W 118°08'0 7.6
2018-Sep-15 16:00N 31°52' W 118°08'4 7.7
2018-Sep-15 15:30N 31°56' W 118°06'3 7.6
2018-Sep-15 15:03N 31°59' W 118°05'4 7.5
2018-Sep-15 14:30N 32°03' W 118°03'4 7.6
2018-Sep-15 14:00N 32°06' W 118°01'4 7.4
2018-Sep-15 13:30N 32°10' W 117°60'3 7.5
2018-Sep-15 13:03N 32°13' W 117°58'0 7.5
2018-Sep-15 13:00N 32°13' W 117°58'4 7.5
2018-Sep-15 12:30N 32°17' W 117°56'3 7.5
2018-Sep-15 12:03N 32°20' W 117°55'0 7.8
2018-Sep-15 12:00N 32°20' W 117°55'4 7.7
2018-Sep-15 11:30N 32°24' W 117°53'3 7.6
2018-Sep-15 11:03N 32°27' W 117°52'0 7.5
2018-Sep-15 11:00N 32°27' W 117°52'4 7.5
2018-Sep-15 10:30N 32°31' W 117°50'3 7.4
2018-Sep-15 10:03N 32°34' W 117°49'0 7.9
2018-Sep-15 10:00N 32°34' W 117°48'4 7.6
2018-Sep-15 09:30N 32°38' W 117°47'4 7.9
2018-Sep-15 09:03N 32°41' W 117°49'0 7.9
2018-Sep-15 09:00N 32°42' W 117°49'4 7.9
2018-Sep-15 08:30N 32°45' W 117°51'4 8.6
2018-Sep-15 08:03N 32°49' W 117°53'0 7.3
2018-Sep-15 08:00N 32°49' W 117°53'4 7.2
2018-Sep-15 07:30N 32°53' W 117°54'3 7.5
2018-Sep-15 07:03N 32°56' W 117°55'1 7.6
2018-Sep-15 06:59N 32°57' W 117°56'4 7.7
2018-Sep-15 06:30N 32°60' W 117°57'3 7.2
2018-Sep-15 06:03N 33°03' W 117°59'0 7.4
2018-Sep-15 06:00N 33°03' W 117°59'4 7.4
2018-Sep-15 05:30N 33°07' W 118°00'3 7.7
2018-Sep-15 05:03N 33°10' W 118°02'0 9.2
2018-Sep-15 05:00N 33°10' W 118°02'510.1
2018-Sep-15 04:30N 33°15' W 118°04'510.2
2018-Sep-15 04:03N 33°19' W 118°06'010.3
2018-Sep-15 04:00N 33°20' W 118°06'510.5
2018-Sep-15 03:30N 33°25' W 118°09'510.5
2018-Sep-15 03:03N 33°29' W 118°10'110.6
2018-Sep-15 03:00N 33°30' W 118°11'510.6
2018-Sep-15 02:30N 33°35' W 118°13'510.3
2018-Sep-15 02:03N 33°39' W 118°12'0 9.9
2018-Sep-15 02:00N 33°40' W 118°12'4 8.8
2018-Sep-15 01:30N 33°44' W 118°11'1 2.3
2018-Sep-15 01:01N 33°45' W 118°11'0 0.0
2018-Sep-15 00:58N 33°45' W 118°11'0 0.0
2018-Sep-15 00:28N 33°45' W 118°11'0 0.0
2018-Sep-15 00:01N 33°45' W 118°11'0 0.0
2018-Sep-14 23:58N 33°45' W 118°11'0 0.0
2018-Sep-14 23:28N 33°45' W 118°11'0 0.0
2018-Sep-14 23:03N 33°45' W 118°11'0 0.0
2018-Sep-14 23:00N 33°45' W 118°11'0 0.0
2018-Sep-14 22:30N 33°45' W 118°11'0 0.0
2018-Sep-14 22:03N 33°45' W 118°11'0 0.0
2018-Sep-14 22:00N 33°45' W 118°11'0 0.0
2018-Sep-14 21:30N 33°45' W 118°11'  
Track history (hours):
 
Tides and Currents Weather Stations Pressure Air Temp Water Temp Dewpoint Dewpoint Depression Visibility Wind Speed Wind Dir Waves Ship Positions

Inspiration

Operator: Carnival Cruise Lines

Last reported at 2018-Sep-24 21:29 UTC. Time now 2018-Sep-24 21:59 UTC.
Position N 33°45' W 118°11'.

Type: Ship. MMSI: 309484000.

Date/timePositionNaut miles runAvg speedWind from/ knotsBaromVisibWave heightAir tempDewpointWater temp
2018-Sep-24 21:29N 33°45' W 118°11'0 0.0
2018-Sep-24 21:02N 33°45' W 118°11'0 0.0
2018-Sep-24 20:59N 33°45' W 118°11'0 0.0
2018-Sep-24 20:29N 33°45' W 118°11'0 0.0
2018-Sep-24 20:02N 33°45' W 118°11'0 0.0
2018-Sep-24 19:59N 33°45' W 118°11'0 0.0
2018-Sep-24 19:28N 33°45' W 118°11'0 0.0
2018-Sep-24 19:01N 33°45' W 118°11'0 0.0
2018-Sep-24 18:58N 33°45' W 118°11'0 0.0
2018-Sep-24 18:28N 33°45' W 118°11'0 0.0
2018-Sep-24 18:01N 33°45' W 118°11'0 0.0
2018-Sep-24 17:55N 33°45' W 118°11'0 0.0
2018-Sep-24 17:28N 33°45' W 118°11'0 0.0
2018-Sep-24 17:03N 33°45' W 118°11'0 0.0
2018-Sep-24 17:00N 33°45' W 118°11'0 0.0
2018-Sep-24 16:30N 33°45' W 118°11'0 0.0
2018-Sep-24 16:03N 33°45' W 118°11'0 0.0
2018-Sep-24 16:00N 33°45' W 118°11'0 0.0
2018-Sep-24 15:30N 33°45' W 118°11'0 0.0
2018-Sep-24 15:03N 33°45' W 118°11'0 0.0
2018-Sep-24 15:00N 33°45' W 118°11'0 0.0
2018-Sep-24 14:02N 33°45' W 118°11'0 0.0
2018-Sep-24 13:59N 33°45' W 118°11'0 0.0
2018-Sep-24 13:29N 33°45' W 118°11'0 0.0
2018-Sep-24 13:02N 33°45' W 118°11'0 0.0
2018-Sep-24 12:59N 33°45' W 118°11'0 0.7
2018-Sep-24 12:30N 33°45' W 118°11'1 1.5
2018-Sep-24 12:03N 33°44' W 118°11'0 6.5
2018-Sep-24 12:00N 33°44' W 118°11'4 8.9
2018-Sep-24 11:30N 33°39' W 118°10'3 7.7
2018-Sep-24 11:03N 33°36' W 118°10'111.8
2018-Sep-24 11:00N 33°35' W 118°10'611.8
2018-Sep-24 10:31N 33°30' W 118°07'716.0
2018-Sep-24 10:04N 33°23' W 118°04'116.0
2018-Sep-24 10:01N 33°22' W 118°04'816.1
2018-Sep-24 09:30N 33°15' W 118°01'715.8
2018-Sep-24 09:03N 33°08' W 117°58'116.0
2018-Sep-24 09:00N 33°07' W 117°57'815.9
2018-Sep-24 08:30N 32°60' W 117°54'716.0
2018-Sep-24 08:03N 32°53' W 117°51'116.4
2018-Sep-24 08:00N 32°52' W 117°51'815.9
2018-Sep-24 07:30N 32°45' W 117°48'715.6
2018-Sep-24 07:03N 32°38' W 117°45'115.8
2018-Sep-24 07:00N 32°38' W 117°44'815.1
2018-Sep-24 06:30N 32°31' W 117°41'715.2
2018-Sep-24 06:03N 32°25' W 117°37'114.7
2018-Sep-24 06:00N 32°24' W 117°37'714.8
2018-Sep-24 05:30N 32°17' W 117°33'714.9
2018-Sep-24 05:03N 32°12' W 117°28'115.0
2018-Sep-24 05:01N 32°12' W 117°27'714.8
2018-Sep-24 04:30N 32°07' W 117°20'714.5
2018-Sep-24 04:03N 32°04' W 117°14'114.7
2018-Sep-24 04:00N 32°03' W 117°13'714.7
2018-Sep-24 03:30N 31°59' W 117°06'714.9
2018-Sep-24 03:03N 31°57' W 116°58'114.6
2018-Sep-24 03:00N 31°57' W 116°57'17 1.3
2018-Sep-23 13:53N 31°50' W 116°39'3 8.3
2018-Sep-23 13:30N 31°50' W 116°43'4 8.9
2018-Sep-23 13:02N 31°50' W 116°48'0 9.1
2018-Sep-23 13:01N 31°50' W 116°48'4 7.2
2018-Sep-23 12:30N 31°51' W 116°52'3 7.7
2018-Sep-23 12:03N 31°50' W 116°56'0 8.2
2018-Sep-23 12:01N 31°50' W 116°57'4 7.8
2018-Sep-23 11:30N 31°48' W 117°01'3 7.8
2018-Sep-23 11:03N 31°47' W 117°05'0 7.5
2018-Sep-23 11:00N 31°47' W 117°05'4 7.8
2018-Sep-23 10:30N 31°47' W 117°10'4 7.8
2018-Sep-23 10:03N 31°47' W 117°14'0 9.2
2018-Sep-23 10:01N 31°47' W 117°14'4 7.9
2018-Sep-23 09:30N 31°47' W 117°19'4 7.9
2018-Sep-23 09:04N 31°47' W 117°23'0 8.3
2018-Sep-23 09:00N 31°47' W 117°24'4 9.0
2018-Sep-23 08:31N 31°47' W 117°29'4 8.8
2018-Sep-23 08:03N 31°47' W 117°34'0 7.6
2018-Sep-23 08:00N 31°47' W 117°34'3 7.0
2018-Sep-23 07:31N 31°47' W 117°38'3 7.0
2018-Sep-23 07:03N 31°47' W 117°42'0 7.6
2018-Sep-23 07:01N 31°47' W 117°42'4 7.6
2018-Sep-23 06:30N 31°47' W 117°47'3 7.7
2018-Sep-23 06:03N 31°47' W 117°51'0 7.4
2018-Sep-23 06:00N 31°47' W 117°51'4 7.8
2018-Sep-23 05:31N 31°46' W 117°56'4 8.0
2018-Sep-23 05:04N 31°42' W 117°57'0 8.0
2018-Sep-23 05:01N 31°42' W 117°57'4 8.0
2018-Sep-23 04:31N 31°38' W 117°57'4 7.8
2018-Sep-23 04:04N 31°34' W 117°57'0 7.6
2018-Sep-23 04:01N 31°34' W 117°57'3 6.9
2018-Sep-23 03:31N 31°31' W 117°55'3 7.2
2018-Sep-23 03:03N 31°31' W 117°51'0 8.6
2018-Sep-23 03:01N 31°31' W 117°51'4 8.5
2018-Sep-23 02:30N 31°34' W 117°46'4 8.3
2018-Sep-23 02:04N 31°36' W 117°43'0 7.8
2018-Sep-23 02:00N 31°36' W 117°42'4 8.0
2018-Sep-23 01:31N 31°38' W 117°39'3 7.7
2018-Sep-23 01:04N 31°42' W 117°38'0 8.0
2018-Sep-23 01:01N 31°42' W 117°38'4 7.7
2018-Sep-23 00:30N 31°46' W 117°39'3 7.4
2018-Sep-23 00:03N 31°47' W 117°43'0 6.8
2018-Sep-23 00:00N 31°47' W 117°43'5 9.6
2018-Sep-22 23:31N 31°47' W 117°49'613.1
2018-Sep-22 23:03N 31°46' W 117°56'113.6
2018-Sep-22 23:01N 31°45' W 117°56'713.2
2018-Sep-22 22:31N 31°39' W 117°57'613.1
2018-Sep-22 22:04N 31°33' W 117°57'113.2
2018-Sep-22 22:01N 31°32' W 117°57'612.9
2018-Sep-22 21:30N 31°26' W 117°57'612.9
2018-Sep-22 21:04N 31°20' W 117°57'113.0
2018-Sep-22 21:01N 31°19' W 117°57'611.9
2018-Sep-22 20:30N 31°14' W 117°59'614.2
2018-Sep-22 20:03N 31°14' W 118°07'114.4
2018-Sep-22 20:00N 31°14' W 118°08'714.4
2018-Sep-22 19:30N 31°14' W 118°16'614.1
2018-Sep-22 19:03N 31°14' W 118°23'114.6
2018-Sep-22 19:00N 31°15' W 118°24'713.8
2018-Sep-22 18:30N 31°21' W 118°23'714.8
2018-Sep-22 18:03N 31°27' W 118°20'115.0
2018-Sep-22 18:00N 31°28' W 118°20'715.0
2018-Sep-22 17:30N 31°35' W 118°16'714.9
2018-Sep-22 17:03N 31°41' W 118°13'114.5
2018-Sep-22 17:00N 31°42' W 118°13'714.9
2018-Sep-22 16:31N 31°49' W 118°09'613.5
2018-Sep-22 16:03N 31°54' W 118°07'0 8.9
2018-Sep-22 16:01N 31°55' W 118°07'4 7.6
2018-Sep-22 15:29N 31°59' W 118°05'3 7.5
2018-Sep-22 15:03N 32°02' W 118°03'0 7.1
2018-Sep-22 15:00N 32°02' W 118°03'4 7.3
2018-Sep-22 14:31N 32°05' W 118°02'4 7.5
2018-Sep-22 14:00N 32°09' W 118°00'4 7.3
2018-Sep-22 13:31N 32°12' W 117°59'3 7.3
2018-Sep-22 13:03N 32°15' W 117°57'0 7.3
2018-Sep-22 13:01N 32°16' W 117°57'4 7.3
2018-Sep-22 12:30N 32°19' W 117°55'3 7.3
2018-Sep-22 12:03N 32°22' W 117°54'0 7.4
2018-Sep-22 12:01N 32°22' W 117°54'4 7.3
2018-Sep-22 11:30N 32°26' W 117°52'3 7.2
2018-Sep-22 11:03N 32°29' W 117°51'0 7.0
2018-Sep-22 11:01N 32°29' W 117°51'4 7.4
2018-Sep-22 10:31N 32°33' W 117°49'3 7.4
2018-Sep-22 10:04N 32°36' W 117°48'0 7.1
2018-Sep-22 10:00N 32°36' W 117°48'4 7.1
2018-Sep-22 09:31N 32°40' W 117°48'3 7.3
2018-Sep-22 09:03N 32°43' W 117°49'0 7.6
2018-Sep-22 09:01N 32°43' W 117°49'5 9.5
2018-Sep-22 08:31N 32°47' W 117°52'3 7.7
2018-Sep-22 08:04N 32°51' W 117°53'0 7.7
2018-Sep-22 08:00N 32°51' W 117°53'4 7.7
2018-Sep-22 07:31N 32°55' W 117°55'3 7.6
2018-Sep-22 07:04N 32°58' W 117°56'0 7.1
2018-Sep-22 07:00N 32°58' W 117°56'4 7.4
2018-Sep-22 06:31N 33°02' W 117°58'3 7.4
2018-Sep-22 06:03N 33°05' W 117°59'0 7.3
2018-Sep-22 06:01N 33°05' W 117°60'4 7.5
2018-Sep-22 05:30N 33°09' W 118°01'4 8.6
2018-Sep-22 05:04N 33°12' W 118°03'0 9.9
2018-Sep-22 05:00N 33°13' W 118°03'510.0
2018-Sep-22 04:30N 33°17' W 118°05'510.2
2018-Sep-22 04:03N 33°22' W 118°07'010.3
2018-Sep-22 04:00N 33°22' W 118°07'510.2
2018-Sep-22 03:30N 33°27' W 118°09'510.0
2018-Sep-22 03:03N 33°31' W 118°11'0 9.6
2018-Sep-22 03:00N 33°32' W 118°12'4 9.0
2018-Sep-22 02:31N 33°36' W 118°13'4 9.2
2018-Sep-22 02:03N 33°40' W 118°12'0 9.0
2018-Sep-22 02:00N 33°41' W 118°12'4 8.1
2018-Sep-22 01:30N 33°44' W 118°11'1 1.6
2018-Sep-22 01:03N 33°45' W 118°11'0 0.0
2018-Sep-22 01:00N 33°45' W 118°11'0 0.0
2018-Sep-22 00:30N 33°45' W 118°11'0 0.0
2018-Sep-22 00:03N 33°45' W 118°11'0 0.0
2018-Sep-22 00:00N 33°45' W 118°11'0 0.0
2018-Sep-21 23:30N 33°45' W 118°11'0 0.0
2018-Sep-21 23:02N 33°45' W 118°11'0 0.0
2018-Sep-21 22:59N 33°45' W 118°11'0 0.0
2018-Sep-21 22:29N 33°45' W 118°11'0 0.0
2018-Sep-21 22:02N 33°45' W 118°11'0 0.0
2018-Sep-21 21:59N 33°45' W 118°11'0 0.0
2018-Sep-21 21:29N 33°45' W 118°11'0 0.0
2018-Sep-21 21:02N 33°45' W 118°11'0 0.0
2018-Sep-21 20:59N 33°45' W 118°11'0 0.0
2018-Sep-21 20:28N 33°45' W 118°11'0 0.0
2018-Sep-21 20:01N 33°45' W 118°11'0 0.0
2018-Sep-21 19:58N 33°45' W 118°11'0 0.0
2018-Sep-21 19:28N 33°45' W 118°11'0 0.0
2018-Sep-21 19:01N 33°45' W 118°11'0 0.0
2018-Sep-21 18:58N 33°45' W 118°11'0 0.0
2018-Sep-21 18:30N 33°45' W 118°11'0 0.0
2018-Sep-21 18:03N 33°45' W 118°11'0 0.0
2018-Sep-21 17:56N 33°45' W 118°11'0 0.0
2018-Sep-21 17:30N 33°45' W 118°11'0 0.0
2018-Sep-21 17:03N 33°45' W 118°11'0 0.0
2018-Sep-21 17:00N 33°45' W 118°11'0 0.0
2018-Sep-21 16:30N 33°45' W 118°11'0 0.0
2018-Sep-21 15:59N 33°45' W 118°11'0 0.0
2018-Sep-21 15:29N 33°45' W 118°11'0 0.0
2018-Sep-21 15:02N 33°45' W 118°11'0 0.0
2018-Sep-21 14:59N 33°45' W 118°11'0 0.0
2018-Sep-21 14:29N 33°45' W 118°11'0 0.0
2018-Sep-21 13:28N 33°45' W 118°11'0 0.0
2018-Sep-21 12:58N 33°45' W 118°11'0 0.1
2018-Sep-21 12:30N 33°45' W 118°11'1 1.7
2018-Sep-21 12:03N 33°44' W 118°11'0 5.8
2018-Sep-21 12:00N 33°44' W 118°11'5 9.1
2018-Sep-21 11:30N 33°39' W 118°10'3 7.4
2018-Sep-21 11:03N 33°36' W 118°10'0 7.5
2018-Sep-21 11:00N 33°36' W 118°10'4 7.5
2018-Sep-21 10:30N 33°32' W 118°08'4 7.8
2018-Sep-21 10:03N 33°29' W 118°07'0 8.0
2018-Sep-21 10:00N 33°29' W 118°07'4 7.9
2018-Sep-21 09:30N 33°25' W 118°05'4 8.0
2018-Sep-21 09:03N 33°22' W 118°03'0 7.9
2018-Sep-21 09:00N 33°21' W 118°03'4 8.0
2018-Sep-21 08:30N 33°18' W 118°01'4 8.2
2018-Sep-21 08:03N 33°14' W 117°60'0 8.4
2018-Sep-21 08:00N 33°14' W 117°60'4 7.5
2018-Sep-21 07:30N 33°10' W 117°58'3 7.7
2018-Sep-21 07:03N 33°07' W 117°57'0 8.1
2018-Sep-21 07:00N 33°07' W 117°57'4 7.9
2018-Sep-21 06:30N 33°03' W 117°55'4 8.0
2018-Sep-21 06:03N 32°59' W 117°54'0 7.6
2018-Sep-21 06:00N 32°59' W 117°54'4 7.9
2018-Sep-21 05:30N 32°55' W 117°52'3 7.8
2018-Sep-21 05:03N 32°52' W 117°51'0 7.7
2018-Sep-21 05:00N 32°52' W 117°51'4 7.8
2018-Sep-21 04:30N 32°48' W 117°49'4 8.3
2018-Sep-21 04:03N 32°45' W 117°47'0 7.9
2018-Sep-21 04:00N 32°44' W 117°47'4 8.1
2018-Sep-21 03:30N 32°40' W 117°46'4 8.2
2018-Sep-21 03:03N 32°37' W 117°44'0 8.4
2018-Sep-21 03:00N 32°36' W 117°44'4 8.0
2018-Sep-21 02:30N 32°33' W 117°43'4 8.0
2018-Sep-21 02:03N 32°29' W 117°41'0 8.2
2018-Sep-21 02:00N 32°29' W 117°41'4 8.1
2018-Sep-21 01:30N 32°25' W 117°40'4 8.2
2018-Sep-21 01:03N 32°21' W 117°39'0 8.2
2018-Sep-21 01:00N 32°21' W 117°38'4 8.3
2018-Sep-21 00:30N 32°17' W 117°36'4 8.4
2018-Sep-21 00:03N 32°15' W 117°33'0 8.7
2018-Sep-21 00:00N 32°14' W 117°33'4 8.4
2018-Sep-20 23:30N 32°11' W 117°29'4 8.3
2018-Sep-20 23:02N 32°08' W 117°26'0 7.7
2018-Sep-20 23:00N 32°08' W 117°26'4 8.4
2018-Sep-20 22:30N 32°05' W 117°23'4 8.3
2018-Sep-20 22:03N 32°02' W 117°20'0 8.7
2018-Sep-20 22:00N 32°02' W 117°19'4 8.2
2018-Sep-20 21:29N 31°59' W 117°16'3 7.6
2018-Sep-20 21:03N 31°56' W 117°13'0 7.0
2018-Sep-20 21:00N 31°56' W 117°13'3 6.4
2018-Sep-20 20:30N 31°53' W 117°13'3 7.0
2018-Sep-20 20:03N 31°51' W 117°16'0 7.7
2018-Sep-20 20:00N 31°51' W 117°17'4 7.6
2018-Sep-20 19:30N 31°51' W 117°21'3 7.8
2018-Sep-20 19:03N 31°50' W 117°25'0 8.2
2018-Sep-20 19:00N 31°50' W 117°25'4 8.1
2018-Sep-20 18:30N 31°50' W 117°30'4 8.5
2018-Sep-20 18:03N 31°49' W 117°35'0 8.8
2018-Sep-20 18:00N 31°49' W 117°35'4 8.4
2018-Sep-20 17:30N 31°49' W 117°40'4 8.1
2018-Sep-20 17:03N 31°48' W 117°44'0 7.8
2018-Sep-20 17:00N 31°48' W 117°45'4 8.1
2018-Sep-20 16:30N 31°48' W 117°50'4 8.0
2018-Sep-20 16:03N 31°48' W 117°54'0 7.2
2018-Sep-20 16:00N 31°47' W 117°54'4 8.1
2018-Sep-20 15:30N 31°47' W 117°59'4 8.0
2018-Sep-20 15:03N 31°47' W 118°03'0 8.8
2018-Sep-20 15:00N 31°47' W 118°04'6 6.5
2018-Sep-20 14:03N 31°40' W 118°05'0 7.9
2018-Sep-20 14:00N 31°40' W 118°05'4 7.9
2018-Sep-20 13:30N 31°37' W 118°02'3 7.6
2018-Sep-20 13:03N 31°34' W 117°60'0 7.6
2018-Sep-20 13:00N 31°34' W 117°59'4 7.6
2018-Sep-20 12:30N 31°31' W 117°57'3 7.4
2018-Sep-20 12:03N 31°28' W 117°55'0 7.7
2018-Sep-20 12:00N 31°27' W 117°55'4 7.4
2018-Sep-20 11:30N 31°24' W 117°52'3 7.1
2018-Sep-20 11:03N 31°23' W 117°49'1 7.7
2018-Sep-20 10:59N 31°23' W 117°48'3 6.4
2018-Sep-20 10:30N 31°24' W 117°45'3 7.0
2018-Sep-20 10:03N 31°27' W 117°45'0 7.5
2018-Sep-20 10:00N 31°28' W 117°45'4 7.7
2018-Sep-20 09:30N 31°31' W 117°48'3 7.6
2018-Sep-20 09:03N 31°34' W 117°50'0 7.5
2018-Sep-20 09:00N 31°34' W 117°50'4 7.4
2018-Sep-20 08:30N 31°37' W 117°53'3 7.2
2018-Sep-20 08:03N 31°40' W 117°55'0 7.2
2018-Sep-20 08:00N 31°40' W 117°55'3 7.0
2018-Sep-20 07:30N 31°44' W 117°55'3 7.4
2018-Sep-20 07:03N 31°45' W 117°52'0 7.6
2018-Sep-20 07:00N 31°45' W 117°51'4 7.8
2018-Sep-20 06:30N 31°45' W 117°47'4 8.0
2018-Sep-20 06:03N 31°46' W 117°43'0 8.1
2018-Sep-20 06:00N 31°46' W 117°42'4 7.8
2018-Sep-20 05:30N 31°46' W 117°38'4 8.8
2018-Sep-20 05:03N 31°46' W 117°33'110.3
2018-Sep-20 05:00N 31°47' W 117°32'713.6
2018-Sep-20 04:30N 31°47' W 117°24'714.6
2018-Sep-20 04:03N 31°48' W 117°17'114.4
2018-Sep-20 04:00N 31°48' W 117°16'714.6
2018-Sep-20 03:31N 31°49' W 117°07'714.8
2018-Sep-20 03:03N 31°49' W 116°59'114.9
2018-Sep-20 03:00N 31°49' W 116°59'714.5
2018-Sep-20 02:31N 31°50' W 116°50'813.6
2018-Sep-20 01:56N 31°49' W 116°41'2 0.2
2018-Sep-19 13:55N 31°50' W 116°39'8 7.6
2018-Sep-19 12:51N 31°53' W 116°48'3 8.0
2018-Sep-19 12:30N 31°54' W 116°50'4 8.8
2018-Sep-19 12:03N 31°55' W 116°55'0 9.6
2018-Sep-19 12:00N 31°55' W 116°55'5 9.2
2018-Sep-19 11:30N 31°57' W 117°00'4 9.4
2018-Sep-19 11:03N 31°58' W 117°05'0 9.6
2018-Sep-19 11:00N 31°58' W 117°06'510.0
2018-Sep-19 10:29N 31°60' W 117°12'410.1
2018-Sep-19 10:03N 32°01' W 117°16'0 9.6
2018-Sep-19 10:00N 32°01' W 117°17'5 9.6
2018-Sep-19 09:30N 32°03' W 117°22'4 9.1
2018-Sep-19 09:03N 32°05' W 117°26'0 9.5
2018-Sep-19 09:00N 32°05' W 117°27'5 9.1
2018-Sep-19 08:30N 32°08' W 117°31'4 9.9
2018-Sep-19 08:03N 32°11' W 117°34'111.0
2018-Sep-19 08:00N 32°12' W 117°35'5 9.9
2018-Sep-19 07:30N 32°16' W 117°37'510.2
2018-Sep-19 07:03N 32°20' W 117°40'110.4
2018-Sep-19 07:00N 32°21' W 117°40'510.8
2018-Sep-19 06:30N 32°26' W 117°43'510.9
2018-Sep-19 06:03N 32°30' W 117°46'111.1
2018-Sep-19 06:00N 32°31' W 117°46'611.0
2018-Sep-19 05:30N 32°35' W 117°49'511.0
2018-Sep-19 05:03N 32°39' W 117°53'110.9
2018-Sep-19 05:00N 32°40' W 117°53'510.7
2018-Sep-19 04:30N 32°45' W 117°55'510.8
2018-Sep-19 04:03N 32°49' W 117°57'110.4
2018-Sep-19 04:00N 32°50' W 117°57'510.5
2018-Sep-19 03:30N 32°55' W 118°00'510.6
2018-Sep-19 03:03N 32°59' W 118°03'111.0
2018-Sep-19 03:00N 32°59' W 118°03'611.1
2018-Sep-19 02:30N 33°04' W 118°06'510.9
2018-Sep-19 02:03N 33°09' W 118°09'111.2
2018-Sep-19 02:00N 33°09' W 118°09'511.0
2018-Sep-19 01:30N 33°14' W 118°11'510.5
2018-Sep-19 01:03N 33°19' W 118°11'110.2
2018-Sep-19 01:00N 33°20' W 118°11'4 8.4
2018-Sep-19 00:30N 33°20' W 118°16'2 5.2
2018-Sep-19 00:04N 33°21' W 118°19'0 1.4
2018-Sep-19 00:01N 33°21' W 118°19'0 0.1
2018-Sep-18 23:29N 33°21' W 118°19'0 0.0
2018-Sep-18 23:02N 33°21' W 118°19'0 0.0
2018-Sep-18 22:59N 33°21' W 118°19'0 0.0
2018-Sep-18 22:29N 33°21' W 118°19'0 0.1
2018-Sep-18 22:01N 33°21' W 118°19'0 1.0
2018-Sep-18 21:58N 33°21' W 118°19'0 0.0
2018-Sep-18 21:25N 33°21' W 118°19'0 0.0
2018-Sep-18 20:58N 33°21' W 118°19'0 0.1
2018-Sep-18 20:25N 33°21' W 118°19'0 0.0
2018-Sep-18 20:01N 33°21' W 118°19'0 0.1
2018-Sep-18 19:58N 33°21' W 118°19'0 0.0
2018-Sep-18 19:30N 33°21' W 118°19'0 0.0
2018-Sep-18 19:03N 33°21' W 118°19'0 1.0
2018-Sep-18 19:00N 33°21' W 118°19'0 0.0
2018-Sep-18 18:30N 33°21' W 118°19'0 0.1
2018-Sep-18 18:03N 33°21' W 118°19'0 0.0
2018-Sep-18 18:00N 33°21' W 118°19'0 0.0
2018-Sep-18 17:29N 33°21' W 118°19'0 0.1
2018-Sep-18 17:02N 33°21' W 118°19'0 0.1
2018-Sep-18 16:59N 33°21' W 118°19'0 0.1
2018-Sep-18 16:29N 33°21' W 118°19'0 0.0
2018-Sep-18 16:02N 33°21' W 118°19'0 0.0
2018-Sep-18 15:56N 33°21' W 118°19'0 0.1
2018-Sep-18 15:23N 33°21' W 118°19'0 0.0
2018-Sep-18 15:01N 33°21' W 118°19'0 0.1
2018-Sep-18 14:58N 33°21' W 118°19'0 0.0
2018-Sep-18 14:25N 33°21' W 118°19'0 0.1
2018-Sep-18 14:00N 33°21' W 118°19'3 5.5
2018-Sep-18 13:30N 33°19' W 118°17'3 7.6
2018-Sep-18 13:03N 33°16' W 118°16'0 7.6
2018-Sep-18 13:00N 33°15' W 118°16'3 6.6
2018-Sep-18 12:30N 33°12' W 118°15'3 7.2
2018-Sep-18 12:02N 33°09' W 118°14'0 7.1
2018-Sep-18 12:00N 33°09' W 118°14'4 7.2
2018-Sep-18 11:30N 33°05' W 118°13'3 7.0
2018-Sep-18 11:03N 33°03' W 118°10'0 7.7
2018-Sep-18 11:00N 33°02' W 118°10'4 7.3
2018-Sep-18 10:30N 33°00' W 118°07'3 7.2
2018-Sep-18 10:03N 32°57' W 118°04'0 7.5
2018-Sep-18 10:00N 32°57' W 118°04'4 7.2
2018-Sep-18 09:30N 32°54' W 118°03'3 7.2
2018-Sep-18 09:03N 32°51' W 118°01'0 7.0
2018-Sep-18 09:00N 32°50' W 118°01'4 6.7
2018-Sep-18 08:29N 32°49' W 117°57'3 6.8
2018-Sep-18 08:03N 32°50' W 117°54'0 7.4
2018-Sep-18 08:00N 32°51' W 117°54'3 6.9
2018-Sep-18 07:30N 32°54' W 117°54'3 7.1
2018-Sep-18 07:03N 32°57' W 117°56'0 7.5
2018-Sep-18 07:00N 32°57' W 117°56'4 7.3
2018-Sep-18 06:30N 33°01' W 117°58'3 7.2
2018-Sep-18 06:03N 33°04' W 117°59'0 7.6
2018-Sep-18 06:00N 33°04' W 117°59'4 7.3
2018-Sep-18 05:30N 33°07' W 118°01'4 8.2
2018-Sep-18 05:03N 33°11' W 118°02'110.1
2018-Sep-18 05:00N 33°11' W 118°03'510.2
2018-Sep-18 04:30N 33°16' W 118°05'510.3
2018-Sep-18 04:03N 33°20' W 118°07'110.4
2018-Sep-18 04:00N 33°21' W 118°07'5 9.7
2018-Sep-18 03:30N 33°26' W 118°09'510.4
2018-Sep-18 03:03N 33°30' W 118°11'010.3
2018-Sep-18 03:00N 33°30' W 118°11'510.7
2018-Sep-18 02:30N 33°35' W 118°13'4 9.6
2018-Sep-18 02:03N 33°40' W 118°12'0 9.2
2018-Sep-18 02:00N 33°40' W 118°12'4 8.9
2018-Sep-18 01:30N 33°44' W 118°11'1 1.4
2018-Sep-18 01:02N 33°45' W 118°11'0 0.0
2018-Sep-18 00:59N 33°45' W 118°11'0 0.0
2018-Sep-18 00:28N 33°45' W 118°11'0 0.0
2018-Sep-18 00:01N 33°45' W 118°11'0 0.0
2018-Sep-17 23:58N 33°45' W 118°11'0 0.0
2018-Sep-17 23:29N 33°45' W 118°11'0 0.0
2018-Sep-17 23:01N 33°45' W 118°11'0 0.0
2018-Sep-17 22:58N 33°45' W 118°11'0 0.0
2018-Sep-17 22:28N 33°45' W 118°11'0 0.0
2018-Sep-17 22:03N 33°45' W 118°11'0 0.0
2018-Sep-17 22:00N 33°45' W 118°11'0 0.0
2018-Sep-17 21:30N 33°45' W 118°11'0 0.0
2018-Sep-17 21:03N 33°45' W 118°11'0 0.0
2018-Sep-17 21:00N 33°45' W 118°11'0 0.0
2018-Sep-17 20:30N 33°45' W 118°11'0 0.0
2018-Sep-17 20:02N 33°45' W 118°11'0 0.0
2018-Sep-17 19:59N 33°45' W 118°11'0 0.0
2018-Sep-17 19:29N 33°45' W 118°11'0 0.0
2018-Sep-17 19:02N 33°45' W 118°11'0 0.0
2018-Sep-17 18:59N 33°45' W 118°11'0 0.0
2018-Sep-17 18:29N 33°45' W 118°11'0 0.0
2018-Sep-17 17:59N 33°45' W 118°11'0 0.0
2018-Sep-17 17:28N 33°45' W 118°11'0 0.0
2018-Sep-17 17:01N 33°45' W 118°11'0 0.0
2018-Sep-17 16:58N 33°45' W 118°11'0 0.0
2018-Sep-17 16:28N 33°45' W 118°11'0 0.0
2018-Sep-17 16:01N 33°45' W 118°11'0 0.0
2018-Sep-17 15:58N 33°45' W 118°11'0 0.0
2018-Sep-17 15:28N 33°45' W 118°11'0 0.0
2018-Sep-17 15:03N 33°45' W 118°11'0 0.0
2018-Sep-17 15:00N 33°45' W 118°11'0 0.0
2018-Sep-17 14:30N 33°45' W 118°11'0 0.0
2018-Sep-17 13:57N 33°45' W 118°11'0 0.0
2018-Sep-17 13:30N 33°45' W 118°11'0 0.0
2018-Sep-17 13:02N 33°45' W 118°11'0 0.0
2018-Sep-17 12:59N 33°45' W 118°11'0 0.6
2018-Sep-17 12:31N 33°45' W 118°11'1 3.0
2018-Sep-17 12:03N 33°44' W 118°11'0 9.8
2018-Sep-17 12:00N 33°43' W 118°11'510.5
2018-Sep-17 11:30N 33°38' W 118°10'511.3
2018-Sep-17 11:03N 33°33' W 118°09'115.4
2018-Sep-17 11:00N 33°32' W 118°08'815.6
2018-Sep-17 10:30N 33°25' W 118°05'715.8
2018-Sep-17 10:04N 33°18' W 118°02'116.1
2018-Sep-17 10:00N 33°18' W 118°01'815.5
2018-Sep-17 09:30N 33°10' W 117°58'715.7
2018-Sep-17 09:03N 33°04' W 117°56'115.9
2018-Sep-17 09:00N 33°03' W 117°55'815.7
2018-Sep-17 08:31N 32°55' W 117°52'715.9
2018-Sep-17 08:03N 32°49' W 117°49'115.6
2018-Sep-17 08:01N 32°48' W 117°49'815.6
2018-Sep-17 07:30N 32°41' W 117°46'715.3
2018-Sep-17 07:03N 32°34' W 117°43'115.6
2018-Sep-17 07:01N 32°34' W 117°42'814.9
2018-Sep-17 06:30N 32°27' W 117°38'614.4
2018-Sep-17 06:03N 32°21' W 117°35'114.6
2018-Sep-17 06:00N 32°20' W 117°35'714.1
2018-Sep-17 05:30N 32°14' W 117°30'614.4
2018-Sep-17 05:04N 32°10' W 117°25'115.1
2018-Sep-17 05:00N 32°09' W 117°24'714.5
2018-Sep-17 04:30N 32°05' W 117°18'614.2
2018-Sep-17 04:03N 32°02' W 117°11'113.9
2018-Sep-17 04:00N 32°01' W 117°10'714.0
2018-Sep-17 03:30N 31°58' W 117°03'614.0
2018-Sep-17 03:04N 31°56' W 116°56'113.6
2018-Sep-17 03:01N 31°55' W 116°56'714.1
2018-Sep-17 02:30N 31°53' W 116°48'613.1
2018-Sep-17 02:03N 31°50' W 116°42'112.7
2018-Sep-17 01:59N 31°50' W 116°41'2 0.2
2018-Sep-16 14:00N 31°50' W 116°39'3 6.8
2018-Sep-16 13:30N 31°50' W 116°43'4 8.5
2018-Sep-16 13:02N 31°50' W 116°47'0 8.6
2018-Sep-16 13:00N 31°50' W 116°48'4 8.2
2018-Sep-16 12:30N 31°50' W 116°52'510.5
2018-Sep-16 12:03N 31°50' W 116°58'110.8
2018-Sep-16 12:00N 31°49' W 116°59'510.4
2018-Sep-16 11:30N 31°48' W 117°04'510.1
2018-Sep-16 11:03N 31°47' W 117°10'110.6
2018-Sep-16 11:00N 31°47' W 117°10'510.3
2018-Sep-16 10:30N 31°48' W 117°16'510.3
2018-Sep-16 10:03N 31°49' W 117°22'0 9.7
2018-Sep-16 10:00N 31°49' W 117°22'510.1
2018-Sep-16 09:30N 31°49' W 117°28'510.0
2018-Sep-16 09:03N 31°50' W 117°33'1 9.8
2018-Sep-16 09:00N 31°50' W 117°34'510.0
2018-Sep-16 08:30N 31°51' W 117°40'4 9.9
2018-Sep-16 08:03N 31°51' W 117°45'110.4
2018-Sep-16 08:00N 31°51' W 117°46'510.1
2018-Sep-16 07:30N 31°52' W 117°52'4 9.9
2018-Sep-16 07:03N 31°53' W 117°57'0 8.8
2018-Sep-16 07:00N 31°53' W 117°57'5 9.3
2018-Sep-16 06:30N 31°53' W 118°03'4 8.7
2018-Sep-16 06:03N 31°53' W 118°07'0 8.3
2018-Sep-16 06:00N 31°53' W 118°08'4 7.7
2018-Sep-16 05:30N 31°49' W 118°06'4 8.1
2018-Sep-16 05:03N 31°46' W 118°04'0 8.1
2018-Sep-16 05:00N 31°45' W 118°04'4 8.0
2018-Sep-16 04:30N 31°42' W 118°02'4 7.9
2018-Sep-16 04:03N 31°39' W 117°60'0 8.0
2018-Sep-16 04:00N 31°38' W 117°59'4 7.7
2018-Sep-16 03:30N 31°35' W 117°57'3 7.3
2018-Sep-16 03:03N 31°32' W 117°56'0 7.4
2018-Sep-16 03:00N 31°32' W 117°56'4 7.5
2018-Sep-16 02:30N 31°28' W 117°55'3 7.3
2018-Sep-16 02:03N 31°25' W 117°55'0 7.6
2018-Sep-16 02:00N 31°24' W 117°55'4 7.7
2018-Sep-16 01:30N 31°20' W 117°55'3 7.5
2018-Sep-16 01:03N 31°17' W 117°55'0 7.4
2018-Sep-16 01:00N 31°17' W 117°55'4 7.9
2018-Sep-16 00:30N 31°13' W 117°57'3 8.0
2018-Sep-16 00:03N 31°11' W 117°60'0 8.0
2018-Sep-16 00:00N 31°10' W 118°00'4 7.8
2018-Sep-15 23:30N 31°07' W 118°03'3 6.8
2018-Sep-15 23:03N 31°07' W 118°07'0 7.2
2018-Sep-15 23:00N 31°07' W 118°07'4 7.6
2018-Sep-15 22:30N 31°09' W 118°10'3 7.7
2018-Sep-15 22:03N 31°12' W 118°13'0 7.9
2018-Sep-15 22:00N 31°12' W 118°13'4 7.6
2018-Sep-15 21:30N 31°15' W 118°16'3 7.5
2018-Sep-15 21:03N 31°18' W 118°19'0 7.0
2018-Sep-15 21:00N 31°18' W 118°19'4 7.5
2018-Sep-15 20:30N 31°21' W 118°22'3 6.7
2018-Sep-15 20:03N 31°24' W 118°21'0 6.5
2018-Sep-15 20:00N 31°24' W 118°21'4 7.2
2018-Sep-15 19:30N 31°28' W 118°20'3 7.7
2018-Sep-15 19:03N 31°31' W 118°18'0 7.9
2018-Sep-15 19:00N 31°31' W 118°18'4 7.9
2018-Sep-15 18:30N 31°35' W 118°16'4 7.8
2018-Sep-15 18:03N 31°38' W 118°15'0 7.7
2018-Sep-15 18:00N 31°38' W 118°14'4 7.8
2018-Sep-15 17:30N 31°42' W 118°13'3 7.4
2018-Sep-15 17:03N 31°45' W 118°11'0 7.3
2018-Sep-15 17:00N 31°45' W 118°11'4 7.3
2018-Sep-15 16:30N 31°49' W 118°09'3 7.4
2018-Sep-15 16:03N 31°52' W 118°08'0 7.6
2018-Sep-15 16:00N 31°52' W 118°08'4 7.7
2018-Sep-15 15:30N 31°56' W 118°06'3 7.6
2018-Sep-15 15:03N 31°59' W 118°05'4 7.5
2018-Sep-15 14:30N 32°03' W 118°03'4 7.6
2018-Sep-15 14:00N 32°06' W 118°01'4 7.4
2018-Sep-15 13:30N 32°10' W 117°60'3 7.5
2018-Sep-15 13:03N 32°13' W 117°58'0 7.5
2018-Sep-15 13:00N 32°13' W 117°58'4 7.5
2018-Sep-15 12:30N 32°17' W 117°56'3 7.5
2018-Sep-15 12:03N 32°20' W 117°55'0 7.8
2018-Sep-15 12:00N 32°20' W 117°55'4 7.7
2018-Sep-15 11:30N 32°24' W 117°53'3 7.6
2018-Sep-15 11:03N 32°27' W 117°52'0 7.5
2018-Sep-15 11:00N 32°27' W 117°52'4 7.5
2018-Sep-15 10:30N 32°31' W 117°50'3 7.4
2018-Sep-15 10:03N 32°34' W 117°49'0 7.9
2018-Sep-15 10:00N 32°34' W 117°48'4 7.6
2018-Sep-15 09:30N 32°38' W 117°47'4 7.9
2018-Sep-15 09:03N 32°41' W 117°49'0 7.9
2018-Sep-15 09:00N 32°42' W 117°49'4 7.9
2018-Sep-15 08:30N 32°45' W 117°51'4 8.6
2018-Sep-15 08:03N 32°49' W 117°53'0 7.3
2018-Sep-15 08:00N 32°49' W 117°53'4 7.2
2018-Sep-15 07:30N 32°53' W 117°54'3 7.5
2018-Sep-15 07:03N 32°56' W 117°55'1 7.6
2018-Sep-15 06:59N 32°57' W 117°56'4 7.7
2018-Sep-15 06:30N 32°60' W 117°57'3 7.2
2018-Sep-15 06:03N 33°03' W 117°59'0 7.4
2018-Sep-15 06:00N 33°03' W 117°59'4 7.4
2018-Sep-15 05:30N 33°07' W 118°00'3 7.7
2018-Sep-15 05:03N 33°10' W 118°02'0 9.2
2018-Sep-15 05:00N 33°10' W 118°02'510.1
2018-Sep-15 04:30N 33°15' W 118°04'510.2
2018-Sep-15 04:03N 33°19' W 118°06'010.3
2018-Sep-15 04:00N 33°20' W 118°06'510.5
2018-Sep-15 03:30N 33°25' W 118°09'510.5
2018-Sep-15 03:03N 33°29' W 118°10'110.6
2018-Sep-15 03:00N 33°30' W 118°11'510.6
2018-Sep-15 02:30N 33°35' W 118°13'510.3
2018-Sep-15 02:03N 33°39' W 118°12'0 9.9
2018-Sep-15 02:00N 33°40' W 118°12'4 8.8
2018-Sep-15 01:30N 33°44' W 118°11'1 2.3
2018-Sep-15 01:01N 33°45' W 118°11'0 0.0
2018-Sep-15 00:58N 33°45' W 118°11'0 0.0
2018-Sep-15 00:28N 33°45' W 118°11'0 0.0
2018-Sep-15 00:01N 33°45' W 118°11'0 0.0
2018-Sep-14 23:58N 33°45' W 118°11'0 0.0
2018-Sep-14 23:28N 33°45' W 118°11'0 0.0
2018-Sep-14 23:03N 33°45' W 118°11'0 0.0
2018-Sep-14 23:00N 33°45' W 118°11'0 0.0
2018-Sep-14 22:30N 33°45' W 118°11'0 0.0
2018-Sep-14 22:03N 33°45' W 118°11'0 0.0
2018-Sep-14 22:00N 33°45' W 118°11'0 0.0
2018-Sep-14 21:30N 33°45' W 118°11'  

Dump ship's entire track history